Weather reports worldwide

Advertisment
Menorca Airport, Spain (2008314): temperature & dewpoint: 06.11.2019 07:00:00 - 12.11.2019 07:00:00 (CET)Menorca Airport, Spain (2008314): wind speed: 06.11.2019 07:00:00 - 12.11.2019 07:00:00 (CET)Menorca Airport, Spain (2008314): wind direction: 06.11.2019 07:00:00 - 12.11.2019 07:00:00 (CET)Menorca Airport, Spain (2008314): visibility: 06.11.2019 07:00:00 - 12.11.2019 07:00:00 (CET)
Date & Time tt [°C] td [°C] ff [km/h] ff [kn] dd vv [km]
12.11.2019 07:00:00 12,0 3,0 50 27 N 10
12.11.2019 06:00:00 12,0 3,0 48 26 N 10
12.11.2019 05:00:00 12,0 3,0 41 22 N 10
12.11.2019 04:00:00 13,0 2,0 48 26 N 10
12.11.2019 03:00:00 13,0 5,0 44 24 N 10
12.11.2019 02:00:00 14,0 4,0 50 27 N 10
12.11.2019 01:00:00 14,0 6,0 50 27 N 10
12.11.2019 00:00:00 14,0 9,0 46 25 N 10
11.11.2019 23:00:00 14,0 7,0 41 22 N 10
11.11.2019 22:00:00 14,0 6,0 41 22 N 10
11.11.2019 21:00:00 14,0 7,0 35 19 N 10
11.11.2019 20:00:00 14,0 9,0 37 20 N 10
11.11.2019 19:00:00 14,0 9,0 39 21 N 10
11.11.2019 18:00:00 14,0 10,0 37 20 N 10
11.11.2019 17:00:00 14,0 10,0 39 21 N 10
11.11.2019 16:00:00 14,0 11,0 42 23 N 10
11.11.2019 15:00:00 14,0 11,0 41 22 N 10
11.11.2019 14:00:00 14,0 11,0 44 24 N 10
11.11.2019 13:00:00 14,0 11,0 50 27 N 10
11.11.2019 12:00:00 14,0 11,0 48 26 N 8
11.11.2019 11:00:00 13,0 11,0 52 28 N 8
11.11.2019 10:00:00 12,0 10,0 50 27 N 4,0
11.11.2019 09:00:00 12,0 10,0 59 32 N 4,0
11.11.2019 08:00:00 11,0 10,0 61 33 N 2,0
11.11.2019 07:00:00 11,0 9,0 52 28 N 7
11.11.2019 06:00:00 11,0 9,0 48 26 NNW 5
11.11.2019 05:00:00 10,0 8,0 44 24 NNW 5
11.11.2019 04:00:00 10,0 8,0 39 21 NW 4,2
11.11.2019 03:00:00 10,0 8,0 35 19 NW 6
11.11.2019 02:00:00 10,0 8,0 29 16 NNW 9
11.11.2019 01:00:00 10,0 8,0 31 17 NW 10
11.11.2019 00:00:00 10,0 8,0 34 18 NNW 7
10.11.2019 23:00:00 11,0 8,0 34 18 NNW 9
10.11.2019 22:00:00 12,0 7,0 31 17 NNW 10
10.11.2019 21:00:00 12,0 6,0 28 15 NNW 10
10.11.2019 20:00:00 12,0 5,0 28 15 NNW 10
10.11.2019 19:00:00 12,0 5,0 29 16 NNW 10
10.11.2019 18:00:00 12,0 5,0 34 18 NNW 10
10.11.2019 17:00:00 11,0 6,0 28 15 NNW 10
10.11.2019 16:00:00 11,0 6,0 35 19 NNW 10
10.11.2019 15:00:00 11,0 7,0 31 17 NNW 10
10.11.2019 14:00:00 9,0 6,0 26 14 NNW 6
10.11.2019 13:00:00 9,0 7,0 24 13 NNW 3,5
10.11.2019 12:00:00 9,0 8,0 22 12 NNW 4,0
10.11.2019 11:00:00 10,0 8,0 18 10 NNW 4,0
10.11.2019 10:00:00 10,0 9,0 22 12 NNW 4,5
10.11.2019 09:00:00 11,0 9,0 34 18 N 4,5
10.11.2019 08:00:00 12,0 9,0 37 20 N 10
10.11.2019 07:00:00 12,0 10,0 28 15 NNE 10
10.11.2019 06:00:00 13,0 10,0 16 9 N 10
10.11.2019 05:00:00 13,0 9,0 9 5 NNW 10
10.11.2019 04:00:00 13,0 10,0 13 7 NW 10
10.11.2019 03:00:00 14,0 8,0 16 9 WNW 10
10.11.2019 02:00:00 16,0 7,0 22 12 WSW 10
10.11.2019 01:00:00 16,0 8,0 21 11 WSW 10
10.11.2019 00:00:00 16,0 7,0 22 12 WSW 10
09.11.2019 23:00:00 15,0 6,0 18 10 W 10
09.11.2019 22:00:00 15,0 7,0 18 10 W 10
09.11.2019 21:00:00 14,0 7,0 21 11 WSW 10
09.11.2019 20:00:00 14,0 8,0 16 9 W 10
09.11.2019 19:00:00 12,0 8,0 11 6 WNW 10
09.11.2019 18:00:00 13,0 8,0 8 4 WNW 10
09.11.2019 17:00:00 14,0 8,0 9 5 NW 10
09.11.2019 16:00:00 15,0 6,0 13 7 WNW 10
09.11.2019 15:00:00 16,0 7,0 18 10 W 10
09.11.2019 14:00:00 16,0 5,0 16 9 W 10
09.11.2019 13:00:00 16,0 7,0 9 5 W 10
09.11.2019 12:00:00 16,0 5,0 15 8 NNW 10
09.11.2019 11:00:00 15,0 7,0 15 8 N 10
09.11.2019 10:00:00 14,0 8,0 13 7 N 10
09.11.2019 09:00:00 12,0 8,0 9 5 WNW 10
09.11.2019 08:00:00 10,0 7,0 11 6 WNW 10
09.11.2019 07:00:00 10,0 7,0 13 7 WNW 10
09.11.2019 06:00:00 11,0 7,0 16 9 WNW 10
09.11.2019 05:00:00 10,0 7,0 13 7 WNW 10
09.11.2019 04:00:00 10,0 7,0 13 7 W 10
09.11.2019 03:00:00 10,0 7,0 11 6 WNW 10
09.11.2019 02:00:00 9,0 7,0 9 5 WNW 10
09.11.2019 01:00:00 10,0 7,0 8 4 WNW 10
09.11.2019 00:00:00 11,0 8,0 13 7 WNW 10
08.11.2019 23:00:00 12,0 8,0 18 10 WNW 10
08.11.2019 22:00:00 12,0 8,0 21 11 WNW 10
08.11.2019 21:00:00 10,0 8,0 13 7 WNW 5
08.11.2019 20:00:00 11,0 7,0 22 12 NNW 5
08.11.2019 19:00:00 13,0 5,0 18 10 WNW 10
08.11.2019 18:00:00 14,0 6,0 26 14 W 10
08.11.2019 17:00:00 14,0 4,0 26 14 W 10
08.11.2019 16:00:00 14,0 5,0 28 15 WNW 10
08.11.2019 15:00:00 14,0 5,0 26 14 W 10
08.11.2019 14:00:00 14,0 5,0 26 14 W 10
08.11.2019 13:00:00 14,0 5,0 28 15 WNW 10
08.11.2019 12:00:00 14,0 4,0 22 12 W 10
08.11.2019 11:00:00 13,0 6,0 21 11 WNW 10
08.11.2019 10:00:00 13,0 7,0 15 8 WNW 10
08.11.2019 09:00:00 12,0 7,0 11 6 NW 10
08.11.2019 08:00:00 11,0 8,0 13 7 NW 10
08.11.2019 07:00:00 12,0 7,0 11 6 WNW 10
08.11.2019 06:00:00 11,0 7,0 8 4 WNW 10
08.11.2019 05:00:00 11,0 7,0 15 8 WNW 10
08.11.2019 04:00:00 10,0 6,0 9 5 WNW 10
08.11.2019 03:00:00 11,0 8,0 9 5 WNW 10
08.11.2019 02:00:00 11,0 10,0 9 5 NW 10
08.11.2019 01:00:00 12,0 10,0 21 11 NNW 10
08.11.2019 00:00:00 12,0 9,0 15 8 NW 10
07.11.2019 23:00:00 14,0 11,0 5 3 WNW 10
07.11.2019 22:00:00 13,0 10,0 15 8 NW 10
07.11.2019 21:00:00 17,0 12,0 26 14 WSW 10
07.11.2019 20:00:00 17,0 13,0 15 8 WSW 10
07.11.2019 19:00:00 16,0 13,0 15 8 WSW 10
07.11.2019 18:00:00 16,0 13,0 2 1 - 10
07.11.2019 17:00:00 17,0 12,0 8 4 WNW 10
07.11.2019 16:00:00 18,0 11,0 22 12 WSW 10
07.11.2019 15:00:00 18,0 10,0 24 13 W 10
07.11.2019 14:00:00 19,0 11,0 28 15 WSW 10
07.11.2019 13:00:00 19,0 10,0 34 18 WSW 10
07.11.2019 12:00:00 19,0 9,0 29 16 WSW 10
07.11.2019 11:00:00 19,0 8,0 29 16 WSW 10
07.11.2019 10:00:00 18,0 10,0 28 15 WSW 10
07.11.2019 09:00:00 18,0 11,0 21 11 WSW 10
07.11.2019 08:00:00 17,0 10,0 18 10 SW 10
07.11.2019 07:00:00 16,0 9,0 16 9 SW 10
07.11.2019 06:00:00 16,0 8,0 15 8 SW 10
07.11.2019 05:00:00 16,0 7,0 18 10 WSW 10
07.11.2019 04:00:00 16,0 7,0 16 9 WSW 10
07.11.2019 03:00:00 15,0 9,0 13 7 WSW 10
07.11.2019 02:00:00 15,0 9,0 13 7 WSW 10
07.11.2019 01:00:00 14,0 9,0 8 4 W 10
07.11.2019 00:00:00 13,0 9,0 8 4 W 10
06.11.2019 23:00:00 12,0 9,0 9 5 WNW 10
06.11.2019 22:00:00 12,0 8,0 4 2 NW 10
06.11.2019 21:00:00 13,0 9,0 2 1 NW 10
06.11.2019 20:00:00 12,0 8,0 8 4 NW 10
06.11.2019 19:00:00 13,0 9,0 8 4 NW 10
06.11.2019 18:00:00 15,0 10,0 8 4 WNW 10
06.11.2019 17:00:00 16,0 10,0 5 3 ESE 10
06.11.2019 16:00:00 17,0 10,0 5 3 E 10
06.11.2019 15:00:00 17,0 9,0 4 2 - 10
06.11.2019 14:00:00 17,0 9,0 11 6 N 10
06.11.2019 13:00:00 17,0 9,0 13 7 NW 10
06.11.2019 12:00:00 17,0 8,0 16 9 N 10
06.11.2019 11:00:00 17,0 9,0 13 7 NW 10
06.11.2019 10:00:00 16,0 9,0 22 12 WNW 10
06.11.2019 09:00:00 15,0 8,0 15 8 WNW 10
06.11.2019 08:00:00 13,0 8,0 9 5 NW 10
06.11.2019 07:00:00 14,0 7,0 15 8 WNW 10

tt = temperature
td = dewpoint
ff = wind speed
dd = wind direction
vv = visibility

Next stations